sensor_id;sensor_type;location;lat;lon;timestamp;pressure;altitude;pressure_sealevel;temperature;humidity
71424;BME280;59240;51.370;-0.486;2023-01-31T00:00:27;102599.09;;;4.00;75.12
71424;BME280;59240;51.370;-0.486;2023-01-31T00:02:55;102581.50;;;3.89;74.84
71424;BME280;59240;51.370;-0.486;2023-01-31T00:05:22;102600.84;;;4.01;74.60
71424;BME280;59240;51.370;-0.486;2023-01-31T00:07:49;102628.13;;;4.20;74.89
71424;BME280;59240;51.370;-0.486;2023-01-31T00:10:15;102637.00;;;4.28;74.34
71424;BME280;59240;51.370;-0.486;2023-01-31T00:12:42;102637.22;;;4.34;75.07
71424;BME280;59240;51.370;-0.486;2023-01-31T00:15:09;102637.25;;;4.36;74.46
71424;BME280;59240;51.370;-0.486;2023-01-31T00:17:36;102629.59;;;4.39;75.04
71424;BME280;59240;51.370;-0.486;2023-01-31T00:20:04;102606.34;;;4.37;74.95
71424;BME280;59240;51.370;-0.486;2023-01-31T00:22:31;102608.50;;;4.51;74.77
71424;BME280;59240;51.370;-0.486;2023-01-31T00:24:58;102630.66;;;4.71;75.08
71424;BME280;59240;51.370;-0.486;2023-01-31T00:27:24;102604.50;;;4.60;75.03
71424;BME280;59240;51.370;-0.486;2023-01-31T00:29:52;102564.53;;;4.48;74.58
71424;BME280;59240;51.370;-0.486;2023-01-31T00:32:19;102583.16;;;4.66;74.50
71424;BME280;59240;51.370;-0.486;2023-01-31T00:34:46;102572.75;;;4.63;75.21
71424;BME280;59240;51.370;-0.486;2023-01-31T00:37:13;102579.94;;;4.73;75.23
71424;BME280;59240;51.370;-0.486;2023-01-31T00:39:39;102590.38;;;4.76;74.88
71424;BME280;59240;51.370;-0.486;2023-01-31T00:42:06;102614.03;;;4.90;74.60
71424;BME280;59240;51.370;-0.486;2023-01-31T00:44:33;102562.63;;;4.69;75.14
71424;BME280;59240;51.370;-0.486;2023-01-31T00:47:00;102593.22;;;4.85;75.28
71424;BME280;59240;51.370;-0.486;2023-01-31T00:49:26;102595.81;;;4.85;74.97
71424;BME280;59240;51.370;-0.486;2023-01-31T00:51:53;102569.78;;;4.79;74.67
71424;BME280;59240;51.370;-0.486;2023-01-31T00:54:19;102598.69;;;4.94;74.72
71424;BME280;59240;51.370;-0.486;2023-01-31T00:56:46;102555.91;;;4.74;75.83
71424;BME280;59240;51.370;-0.486;2023-01-31T00:59:14;102580.50;;;4.91;75.28
71424;BME280;59240;51.370;-0.486;2023-01-31T01:01:40;102611.22;;;5.11;75.21
71424;BME280;59240;51.370;-0.486;2023-01-31T01:04:07;102572.94;;;4.98;75.45
71424;BME280;59240;51.370;-0.486;2023-01-31T01:06:37;102620.44;;;5.31;75.67
71424;BME280;59240;51.370;-0.486;2023-01-31T01:09:05;102568.19;;;5.11;75.44
71424;BME280;59240;51.370;-0.486;2023-01-31T01:11:32;102605.28;;;5.43;75.94
71424;BME280;59240;51.370;-0.486;2023-01-31T01:14:00;102602.88;;;5.49;75.88
71424;BME280;59240;51.370;-0.486;2023-01-31T01:16:34;102597.78;;;5.53;75.02
71424;BME280;59240;51.370;-0.486;2023-01-31T01:19:09;102598.03;;;5.62;75.76
71424;BME280;59240;51.370;-0.486;2023-01-31T01:21:38;102589.53;;;5.66;75.07
71424;BME280;59240;51.370;-0.486;2023-01-31T01:24:10;102545.91;;;5.46;75.98
71424;BME280;59240;51.370;-0.486;2023-01-31T01:26:37;102579.38;;;5.73;75.63
71424;BME280;59240;51.370;-0.486;2023-01-31T01:29:04;102547.13;;;5.59;75.07
71424;BME280;59240;51.370;-0.486;2023-01-31T01:31:31;102587.38;;;5.83;75.32
71424;BME280;59240;51.370;-0.486;2023-01-31T01:34:03;102585.75;;;5.86;74.58
71424;BME280;59240;51.370;-0.486;2023-01-31T01:36:34;102559.44;;;5.69;75.15
71424;BME280;59240;51.370;-0.486;2023-01-31T01:39:03;102557.09;;;5.77;75.18
71424;BME280;59240;51.370;-0.486;2023-01-31T01:41:31;102562.31;;;5.80;75.20
71424;BME280;59240;51.370;-0.486;2023-01-31T01:44:00;102584.28;;;5.94;75.53
71424;BME280;59240;51.370;-0.486;2023-01-31T01:46:54;102580.81;;;5.94;75.52
71424;BME280;59240;51.370;-0.486;2023-01-31T01:51:53;102571.09;;;5.85;74.90
71424;BME280;59240;51.370;-0.486;2023-01-31T01:54:29;102568.47;;;5.84;75.63
71424;BME280;59240;51.370;-0.486;2023-01-31T01:56:59;102567.50;;;5.80;74.58
71424;BME280;59240;51.370;-0.486;2023-01-31T01:59:36;102574.25;;;5.75;75.33
71424;BME280;59240;51.370;-0.486;2023-01-31T02:02:04;102606.69;;;5.94;74.78
71424;BME280;59240;51.370;-0.486;2023-01-31T02:04:35;102580.47;;;5.82;75.67
71424;BME280;59240;51.370;-0.486;2023-01-31T02:07:03;102578.06;;;5.89;74.86
71424;BME280;59240;51.370;-0.486;2023-01-31T02:12:18;102561.47;;;5.81;75.59
71424;BME280;59240;51.370;-0.486;2023-01-31T02:14:45;102560.75;;;5.85;74.78
71424;BME280;59240;51.370;-0.486;2023-01-31T02:17:16;102568.78;;;5.96;74.67
71424;BME280;59240;51.370;-0.486;2023-01-31T02:27:59;102549.72;;;5.91;75.42
71424;BME280;59240;51.370;-0.486;2023-01-31T02:33:35;102563.00;;;6.05;75.39
71424;BME280;59240;51.370;-0.486;2023-01-31T02:36:28;102567.50;;;6.12;76.02
71424;BME280;59240;51.370;-0.486;2023-01-31T02:44:33;102554.81;;;6.24;75.02
71424;BME280;59240;51.370;-0.486;2023-01-31T02:50:26;102533.34;;;6.26;75.52
71424;BME280;59240;51.370;-0.486;2023-01-31T02:52:58;102519.38;;;6.20;75.50
71424;BME280;59240;51.370;-0.486;2023-01-31T02:55:46;102545.69;;;6.38;75.06
71424;BME280;59240;51.370;-0.486;2023-01-31T02:58:35;102543.19;;;6.41;75.38
71424;BME280;59240;51.370;-0.486;2023-01-31T03:01:03;102537.84;;;6.35;75.35
71424;BME280;59240;51.370;-0.486;2023-01-31T03:03:33;102525.59;;;6.28;75.65
71424;BME280;59240;51.370;-0.486;2023-01-31T03:09:06;102490.81;;;6.17;75.68
71424;BME280;59240;51.370;-0.486;2023-01-31T03:12:03;102537.44;;;6.54;76.24
71424;BME280;59240;51.370;-0.486;2023-01-31T03:15:04;102513.84;;;6.42;75.98
71424;BME280;59240;51.370;-0.486;2023-01-31T03:20:23;102482.59;;;6.33;76.47
71424;BME280;59240;51.370;-0.486;2023-01-31T03:22:58;102512.59;;;6.63;75.02
71424;BME280;59240;51.370;-0.486;2023-01-31T03:25:28;102492.47;;;6.51;75.59
71424;BME280;59240;51.370;-0.486;2023-01-31T03:28:01;102494.31;;;6.55;75.68
71424;BME280;59240;51.370;-0.486;2023-01-31T03:30:33;102526.72;;;6.77;75.38
71424;BME280;59240;51.370;-0.486;2023-01-31T03:33:23;102531.91;;;6.77;76.16
71424;BME280;59240;51.370;-0.486;2023-01-31T03:36:23;102521.47;;;6.74;75.93
71424;BME280;59240;51.370;-0.486;2023-01-31T03:41:56;102508.72;;;6.83;75.85
71424;BME280;59240;51.370;-0.486;2023-01-31T03:46:58;102481.22;;;6.90;75.22
71424;BME280;59240;51.370;-0.486;2023-01-31T03:49:28;102445.41;;;6.69;75.71
71424;BME280;59240;51.370;-0.486;2023-01-31T03:52:03;102455.88;;;6.75;75.58
71424;BME280;59240;51.370;-0.486;2023-01-31T03:54:35;102440.50;;;6.82;75.28
71424;BME280;59240;51.370;-0.486;2023-01-31T03:57:24;102457.16;;;6.95;75.05
71424;BME280;59240;51.370;-0.486;2023-01-31T03:59:54;102427.50;;;6.79;74.95
71424;BME280;59240;51.370;-0.486;2023-01-31T04:02:27;102442.97;;;6.78;75.11
71424;BME280;59240;51.370;-0.486;2023-01-31T04:07:30;102461.25;;;6.84;74.59
71424;BME280;59240;51.370;-0.486;2023-01-31T04:09:58;102452.50;;;6.79;75.23
71424;BME280;59240;51.370;-0.486;2023-01-31T04:12:24;102473.34;;;6.85;74.69
71424;BME280;59240;51.370;-0.486;2023-01-31T04:14:51;102458.56;;;6.79;74.62
71424;BME280;59240;51.370;-0.486;2023-01-31T04:17:17;102461.13;;;6.78;75.18
71424;BME280;59240;51.370;-0.486;2023-01-31T04:19:44;102461.97;;;6.78;75.53
71424;BME280;59240;51.370;-0.486;2023-01-31T04:22:10;102463.69;;;6.76;75.02
71424;BME280;59240;51.370;-0.486;2023-01-31T04:24:38;102444.50;;;6.67;75.09
71424;BME280;59240;51.370;-0.486;2023-01-31T04:27:04;102466.38;;;6.81;75.58
71424;BME280;59240;51.370;-0.486;2023-01-31T04:29:31;102436.78;;;6.70;75.87
71424;BME280;59240;51.370;-0.486;2023-01-31T04:31:58;102432.44;;;6.69;75.25
71424;BME280;59240;51.370;-0.486;2023-01-31T04:34:25;102477.03;;;6.96;75.33
71424;BME280;59240;51.370;-0.486;2023-01-31T04:36:51;102454.38;;;6.86;75.37
71424;BME280;59240;51.370;-0.486;2023-01-31T04:39:18;102430.84;;;6.74;75.26
71424;BME280;59240;51.370;-0.486;2023-01-31T04:42:04;102444.94;;;6.88;75.39
71424;BME280;59240;51.370;-0.486;2023-01-31T04:44:38;102465.00;;;7.00;75.01
71424;BME280;59240;51.370;-0.486;2023-01-31T04:47:05;102479.03;;;7.09;75.00
71424;BME280;59240;51.370;-0.486;2023-01-31T04:49:32;102433.63;;;6.86;74.86
71424;BME280;59240;51.370;-0.486;2023-01-31T04:51:58;102459.78;;;6.98;75.02
71424;BME280;59240;51.370;-0.486;2023-01-31T04:54:25;102453.75;;;6.98;75.04
71424;BME280;59240;51.370;-0.486;2023-01-31T04:56:52;102455.47;;;6.99;75.52
71424;BME280;59240;51.370;-0.486;2023-01-31T04:59:18;102468.59;;;7.06;75.73
71424;BME280;59240;51.370;-0.486;2023-01-31T05:01:45;102447.81;;;7.03;74.84
71424;BME280;59240;51.370;-0.486;2023-01-31T05:04:11;102430.28;;;6.90;75.54
71424;BME280;59240;51.370;-0.486;2023-01-31T05:06:38;102435.53;;;6.93;75.71
71424;BME280;59240;51.370;-0.486;2023-01-31T05:09:05;102462.66;;;7.12;75.63
71424;BME280;59240;51.370;-0.486;2023-01-31T05:11:32;102468.78;;;7.16;75.31
71424;BME280;59240;51.370;-0.486;2023-01-31T05:13:59;102451.25;;;7.02;75.63
71424;BME280;59240;51.370;-0.486;2023-01-31T05:16:26;102456.56;;;7.08;75.57
71424;BME280;59240;51.370;-0.486;2023-01-31T05:18:52;102453.94;;;7.07;75.35
71424;BME280;59240;51.370;-0.486;2023-01-31T05:21:19;102413.88;;;6.91;75.48
71424;BME280;59240;51.370;-0.486;2023-01-31T05:23:46;102448.06;;;7.16;75.93
71424;BME280;59240;51.370;-0.486;2023-01-31T05:26:12;102427.09;;;7.03;75.61
71424;BME280;59240;51.370;-0.486;2023-01-31T05:28:39;102458.59;;;7.26;76.16
71424;BME280;59240;51.370;-0.486;2023-01-31T05:31:06;102389.66;;;6.88;76.20
71424;BME280;59240;51.370;-0.486;2023-01-31T05:33:34;102425.63;;;7.18;76.12
71424;BME280;59240;51.370;-0.486;2023-01-31T05:36:02;102455.31;;;7.35;75.64
71424;BME280;59240;51.370;-0.486;2023-01-31T05:38:29;102451.81;;;7.33;76.16
71424;BME280;59240;51.370;-0.486;2023-01-31T05:40:56;102432.50;;;7.16;76.18
71424;BME280;59240;51.370;-0.486;2023-01-31T05:43:23;102438.69;;;7.24;75.28
71424;BME280;59240;51.370;-0.486;2023-01-31T05:45:49;102455.25;;;7.32;75.51
71424;BME280;59240;51.370;-0.486;2023-01-31T05:48:35;102476.31;;;7.49;75.67
71424;BME280;59240;51.370;-0.486;2023-01-31T05:51:09;102439.69;;;7.32;75.77
71424;BME280;59240;51.370;-0.486;2023-01-31T05:53:35;102448.47;;;7.40;75.68
71424;BME280;59240;51.370;-0.486;2023-01-31T05:56:02;102466.81;;;7.49;75.77
71424;BME280;59240;51.370;-0.486;2023-01-31T05:58:28;102457.25;;;7.47;76.20
71424;BME280;59240;51.370;-0.486;2023-01-31T06:00:55;102436.47;;;7.45;75.99
71424;BME280;59240;51.370;-0.486;2023-01-31T06:03:22;102420.88;;;7.42;75.38
71424;BME280;59240;51.370;-0.486;2023-01-31T06:05:49;102426.94;;;7.43;75.54
71424;BME280;59240;51.370;-0.486;2023-01-31T06:08:15;102397.25;;;7.27;75.60
71424;BME280;59240;51.370;-0.486;2023-01-31T06:10:43;102428.59;;;7.39;75.24
71424;BME280;59240;51.370;-0.486;2023-01-31T06:13:09;102422.50;;;7.37;76.32
71424;BME280;59240;51.370;-0.486;2023-01-31T06:15:36;102398.00;;;7.20;75.61
71424;BME280;59240;51.370;-0.486;2023-01-31T06:18:03;102423.28;;;7.31;75.82
71424;BME280;59240;51.370;-0.486;2023-01-31T06:20:30;102427.47;;;7.25;75.96
71424;BME280;59240;51.370;-0.486;2023-01-31T06:22:57;102414.25;;;7.11;76.11
71424;BME280;59240;51.370;-0.486;2023-01-31T06:25:26;102409.91;;;7.08;75.72
71424;BME280;59240;51.370;-0.486;2023-01-31T06:27:54;102422.03;;;7.09;76.45
71424;BME280;59240;51.370;-0.486;2023-01-31T06:30:21;102422.03;;;7.09;75.98
71424;BME280;59240;51.370;-0.486;2023-01-31T06:32:48;102396.69;;;6.93;77.28
71424;BME280;59240;51.370;-0.486;2023-01-31T06:35:15;102431.44;;;7.06;75.98
71424;BME280;59240;51.370;-0.486;2023-01-31T06:37:41;102409.63;;;6.93;76.88
71424;BME280;59240;51.370;-0.486;2023-01-31T06:40:08;102410.50;;;6.94;76.96
71424;BME280;59240;51.370;-0.486;2023-01-31T06:42:36;102396.59;;;6.89;76.92
71424;BME280;59240;51.370;-0.486;2023-01-31T06:45:03;102410.53;;;6.95;77.03
71424;BME280;59240;51.370;-0.486;2023-01-31T06:47:29;102427.31;;;7.16;76.52
71424;BME280;59240;51.370;-0.486;2023-01-31T06:49:56;102436.94;;;7.21;76.91
71424;BME280;59240;51.370;-0.486;2023-01-31T06:52:22;102434.41;;;7.26;77.14
71424;BME280;59240;51.370;-0.486;2023-01-31T06:54:52;102397.81;;;7.09;77.11
71424;BME280;59240;51.370;-0.486;2023-01-31T06:57:19;102410.16;;;7.21;76.41
71424;BME280;59240;51.370;-0.486;2023-01-31T06:59:46;102417.09;;;7.25;77.36
71424;BME280;59240;51.370;-0.486;2023-01-31T07:02:13;102415.53;;;7.33;76.74
71424;BME280;59240;51.370;-0.486;2023-01-31T07:04:39;102412.06;;;7.34;76.60
71424;BME280;59240;51.370;-0.486;2023-01-31T07:07:06;102406.94;;;7.35;77.62
71424;BME280;59240;51.370;-0.486;2023-01-31T07:09:33;102412.19;;;7.40;78.00
71424;BME280;59240;51.370;-0.486;2023-01-31T07:12:01;102406.06;;;7.35;77.86
71424;BME280;59240;51.370;-0.486;2023-01-31T07:14:28;102410.50;;;7.42;77.37
71424;BME280;59240;51.370;-0.486;2023-01-31T07:16:55;102398.31;;;7.36;77.09
71424;BME280;59240;51.370;-0.486;2023-01-31T07:19:22;102382.66;;;7.32;77.24
71424;BME280;59240;51.370;-0.486;2023-01-31T07:21:48;102369.66;;;7.29;77.57
71424;BME280;59240;51.370;-0.486;2023-01-31T07:24:15;102392.28;;;7.37;76.86
71424;BME280;59240;51.370;-0.486;2023-01-31T07:26:42;102402.03;;;7.52;77.23
71424;BME280;59240;51.370;-0.486;2023-01-31T07:29:09;102391.66;;;7.52;77.04
71424;BME280;59240;51.370;-0.486;2023-01-31T07:31:38;102387.34;;;7.54;77.38
71424;BME280;59240;51.370;-0.486;2023-01-31T07:34:05;102371.72;;;7.48;77.18
71424;BME280;59240;51.370;-0.486;2023-01-31T07:36:31;102398.78;;;7.65;76.78
71424;BME280;59240;51.370;-0.486;2023-01-31T07:38:58;102414.47;;;7.75;77.04
71424;BME280;59240;51.370;-0.486;2023-01-31T07:41:27;102367.47;;;7.53;77.21
71424;BME280;59240;51.370;-0.486;2023-01-31T07:43:54;102363.34;;;7.67;77.29
71424;BME280;59240;51.370;-0.486;2023-01-31T07:46:20;102370.34;;;7.72;77.03
71424;BME280;59240;51.370;-0.486;2023-01-31T07:48:47;102365.16;;;7.72;77.23
71424;BME280;59240;51.370;-0.486;2023-01-31T07:51:15;102368.75;;;7.80;77.12
71424;BME280;59240;51.370;-0.486;2023-01-31T07:53:41;102380.16;;;7.91;77.15
71424;BME280;59240;51.370;-0.486;2023-01-31T07:56:16;102394.13;;;7.99;77.28
71424;BME280;59240;51.370;-0.486;2023-01-31T07:58:44;102394.09;;;7.96;76.83
71424;BME280;59240;51.370;-0.486;2023-01-31T08:01:24;102394.09;;;7.98;77.09
71424;BME280;59240;51.370;-0.486;2023-01-31T08:04:14;102388.91;;;7.96;77.22
71424;BME280;59240;51.370;-0.486;2023-01-31T08:06:48;102359.09;;;7.70;76.48
71424;BME280;59240;51.370;-0.486;2023-01-31T08:09:19;102374.03;;;7.86;76.39
71424;BME280;59240;51.370;-0.486;2023-01-31T08:11:46;102390.56;;;7.94;76.93
71424;BME280;59240;51.370;-0.486;2023-01-31T08:14:12;102340.06;;;7.71;76.93
71424;BME280;59240;51.370;-0.486;2023-01-31T08:16:39;102353.06;;;7.74;76.77
71424;BME280;59240;51.370;-0.486;2023-01-31T08:19:06;102380.94;;;7.85;76.80
71424;BME280;59240;51.370;-0.486;2023-01-31T08:21:33;102383.69;;;7.96;76.99
71424;BME280;59240;51.370;-0.486;2023-01-31T08:23:59;102388.06;;;8.00;76.67
71424;BME280;59240;51.370;-0.486;2023-01-31T08:26:26;102329.75;;;7.75;76.20
71424;BME280;59240;51.370;-0.486;2023-01-31T08:28:53;102361.22;;;7.97;77.17
71424;BME280;59240;51.370;-0.486;2023-01-31T08:31:22;102363.88;;;8.03;76.73
71424;BME280;59240;51.370;-0.486;2023-01-31T08:33:49;102384.00;;;8.19;76.93
71424;BME280;59240;51.370;-0.486;2023-01-31T08:36:23;102379.69;;;8.19;76.84
71424;BME280;59240;51.370;-0.486;2023-01-31T08:38:50;102375.47;;;8.28;77.09
71424;BME280;59240;51.370;-0.486;2023-01-31T08:41:18;102347.56;;;8.11;77.52
71424;BME280;59240;51.370;-0.486;2023-01-31T08:43:45;102342.47;;;8.17;77.45
71424;BME280;59240;51.370;-0.486;2023-01-31T08:46:25;102391.28;;;8.43;76.99
71424;BME280;59240;51.370;-0.486;2023-01-31T08:48:59;102384.38;;;8.45;77.23
71424;BME280;59240;51.370;-0.486;2023-01-31T08:51:27;102336.44;;;8.23;77.27
71424;BME280;59240;51.370;-0.486;2023-01-31T08:53:54;102350.50;;;8.36;76.92
71424;BME280;59240;51.370;-0.486;2023-01-31T08:56:21;102330.47;;;8.29;77.18
71424;BME280;59240;51.370;-0.486;2023-01-31T08:58:52;102384.59;;;8.63;77.04
71424;BME280;59240;51.370;-0.486;2023-01-31T09:01:20;102325.44;;;8.38;76.96
71424;BME280;59240;51.370;-0.486;2023-01-31T09:03:52;102350.72;;;8.53;77.26
71424;BME280;59240;51.370;-0.486;2023-01-31T09:06:24;102389.94;;;8.77;77.32
71424;BME280;59240;51.370;-0.486;2023-01-31T09:08:54;102343.00;;;8.59;77.47
71424;BME280;59240;51.370;-0.486;2023-01-31T09:11:20;102370.88;;;8.76;77.32
71424;BME280;59240;51.370;-0.486;2023-01-31T09:13:48;102341.34;;;8.65;76.17
71424;BME280;59240;51.370;-0.486;2023-01-31T09:16:20;102334.44;;;8.70;76.90
71424;BME280;59240;51.370;-0.486;2023-01-31T09:18:47;102348.44;;;8.85;77.01
71424;BME280;59240;51.370;-0.486;2023-01-31T09:21:19;102366.81;;;9.01;77.23
71424;BME280;59240;51.370;-0.486;2023-01-31T09:23:47;102362.56;;;9.07;77.74
71424;BME280;59240;51.370;-0.486;2023-01-31T09:26:15;102322.47;;;8.85;76.24
71424;BME280;59240;51.370;-0.486;2023-01-31T09:28:42;102340.91;;;9.08;77.74
71424;BME280;59240;51.370;-0.486;2023-01-31T09:31:11;102371.44;;;9.31;77.13
71424;BME280;59240;51.370;-0.486;2023-01-31T09:33:39;102344.50;;;9.25;76.50
71424;BME280;59240;51.370;-0.486;2023-01-31T09:36:12;102371.59;;;9.51;76.29
71424;BME280;59240;51.370;-0.486;2023-01-31T09:38:39;102342.09;;;9.51;76.28
71424;BME280;59240;51.370;-0.486;2023-01-31T09:41:27;102377.00;;;9.77;77.33
71424;BME280;59240;51.370;-0.486;2023-01-31T09:43:59;102337.13;;;9.81;75.85
71424;BME280;59240;51.370;-0.486;2023-01-31T09:46:35;102331.09;;;9.90;75.95
71424;BME280;59240;51.370;-0.486;2023-01-31T09:49:13;102352.84;;;10.00;75.89
71424;BME280;59240;51.370;-0.486;2023-01-31T09:51:42;102372.00;;;10.11;75.47
71424;BME280;59240;51.370;-0.486;2023-01-31T09:54:32;102373.75;;;10.15;75.68
71424;BME280;59240;51.370;-0.486;2023-01-31T10:05:11;102324.13;;;9.81;74.58
71424;BME280;59240;51.370;-0.486;2023-01-31T10:07:52;102298.00;;;9.69;75.82
71424;BME280;59240;51.370;-0.486;2023-01-31T10:10:36;102343.22;;;9.88;75.16
71424;BME280;59240;51.370;-0.486;2023-01-31T10:13:17;102305.78;;;9.66;75.74
71424;BME280;59240;51.370;-0.486;2023-01-31T10:15:53;102361.50;;;9.96;76.08
71424;BME280;59240;51.370;-0.486;2023-01-31T10:18:25;102356.25;;;9.93;76.67
71424;BME280;59240;51.370;-0.486;2023-01-31T10:21:08;102377.22;;;10.09;76.49
71424;BME280;59240;51.370;-0.486;2023-01-31T10:24:04;102351.94;;;9.92;75.82
71424;BME280;59240;51.370;-0.486;2023-01-31T10:26:39;102363.28;;;10.03;75.79
71424;BME280;59240;51.370;-0.486;2023-01-31T10:29:38;102362.41;;;10.08;76.34
71424;BME280;59240;51.370;-0.486;2023-01-31T10:32:27;102349.34;;;10.01;75.62
71424;BME280;59240;51.370;-0.486;2023-01-31T10:35:22;102398.22;;;10.41;75.84
71424;BME280;59240;51.370;-0.486;2023-01-31T10:38:00;102356.41;;;10.20;75.34
71424;BME280;59240;51.370;-0.486;2023-01-31T10:40:36;102389.56;;;10.49;75.38
71424;BME280;59240;51.370;-0.486;2023-01-31T10:45:40;102374.00;;;10.70;76.03
71424;BME280;59240;51.370;-0.486;2023-01-31T10:48:17;102347.06;;;10.65;75.11
71424;BME280;59240;51.370;-0.486;2023-01-31T10:51:55;102383.66;;;11.03;75.21
71424;BME280;59240;51.370;-0.486;2023-01-31T10:54:24;102376.72;;;11.19;75.82
71424;BME280;59240;51.370;-0.486;2023-01-31T10:56:54;102349.78;;;11.20;75.21
71424;BME280;59240;51.370;-0.486;2023-01-31T10:59:39;102370.63;;;11.29;74.14
71424;BME280;59240;51.370;-0.486;2023-01-31T11:02:19;102342.81;;;11.22;74.62
71424;BME280;59240;51.370;-0.486;2023-01-31T11:04:53;102338.47;;;11.27;75.02
71424;BME280;59240;51.370;-0.486;2023-01-31T11:07:20;102356.72;;;11.42;75.05
71424;BME280;59240;51.370;-0.486;2023-01-31T11:09:54;102363.69;;;11.46;74.85
71424;BME280;59240;51.370;-0.486;2023-01-31T11:12:39;102333.25;;;11.39;73.51
71424;BME280;59240;51.370;-0.486;2023-01-31T11:15:15;102327.16;;;11.43;74.75
71424;BME280;59240;51.370;-0.486;2023-01-31T11:17:44;102366.25;;;11.72;74.50
71424;BME280;59240;51.370;-0.486;2023-01-31T11:20:43;102364.53;;;11.77;73.29
71424;BME280;59240;51.370;-0.486;2023-01-31T11:23:13;102349.72;;;11.72;73.80
71424;BME280;59240;51.370;-0.486;2023-01-31T11:25:48;102314.09;;;11.49;73.87
71424;BME280;59240;51.370;-0.486;2023-01-31T11:30:47;102350.59;;;11.71;74.09
71424;BME280;59240;51.370;-0.486;2023-01-31T11:36:11;102336.69;;;11.87;74.14
71424;BME280;59240;51.370;-0.486;2023-01-31T11:38:38;102327.09;;;11.86;73.69
71424;BME280;59240;51.370;-0.486;2023-01-31T11:44:14;102313.13;;;11.99;73.77
71424;BME280;59240;51.370;-0.486;2023-01-31T11:47:24;102323.47;;;12.30;73.50
71424;BME280;59240;51.370;-0.486;2023-01-31T11:49:47;102289.47;;;12.35;72.46
71424;BME280;59240;51.370;-0.486;2023-01-31T11:52:17;102316.31;;;12.66;72.33
71424;BME280;59240;51.370;-0.486;2023-01-31T11:54:53;102290.19;;;12.66;72.80
71424;BME280;59240;51.370;-0.486;2023-01-31T11:57:31;102278.84;;;12.70;71.55
71424;BME280;59240;51.370;-0.486;2023-01-31T12:00:01;102284.84;;;12.81;71.88
71424;BME280;59240;51.370;-0.486;2023-01-31T12:02:39;102250.06;;;12.68;70.58
71424;BME280;59240;51.370;-0.486;2023-01-31T12:05:14;102283.03;;;12.89;70.42
71424;BME280;59240;51.370;-0.486;2023-01-31T12:07:47;102305.59;;;13.02;71.64
71424;BME280;59240;51.370;-0.486;2023-01-31T12:10:42;102303.84;;;13.04;69.62
71424;BME280;59240;51.370;-0.486;2023-01-31T12:13:16;102258.69;;;12.79;70.70
71424;BME280;59240;51.370;-0.486;2023-01-31T12:15:55;102267.25;;;13.00;70.81
71424;BME280;59240;51.370;-0.486;2023-01-31T12:21:29;102282.72;;;13.30;70.39
71424;BME280;59240;51.370;-0.486;2023-01-31T12:24:38;102287.94;;;13.30;68.29
71424;BME280;59240;51.370;-0.486;2023-01-31T12:38:18;102281.44;;;13.73;69.38
71424;BME280;59240;51.370;-0.486;2023-01-31T12:57:34;102284.81;;;13.79;66.48
71424;BME280;59240;51.370;-0.486;2023-01-31T13:05:41;102280.53;;;13.74;65.29
71424;BME280;59240;51.370;-0.486;2023-01-31T13:08:16;102271.00;;;13.66;65.11
71424;BME280;59240;51.370;-0.486;2023-01-31T13:13:23;102274.47;;;13.68;65.28
71424;BME280;59240;51.370;-0.486;2023-01-31T13:15:59;102277.22;;;13.59;65.77
71424;BME280;59240;51.370;-0.486;2023-01-31T13:18:29;102263.31;;;13.51;66.52
71424;BME280;59240;51.370;-0.486;2023-01-31T13:21:05;102254.59;;;13.49;66.34
71424;BME280;59240;51.370;-0.486;2023-01-31T13:23:40;102296.34;;;13.64;65.10
71424;BME280;59240;51.370;-0.486;2023-01-31T13:29:03;102286.81;;;13.57;65.01
71424;BME280;59240;51.370;-0.486;2023-01-31T13:32:04;102295.41;;;13.70;63.01
71424;BME280;59240;51.370;-0.486;2023-01-31T13:34:39;102262.28;;;13.67;65.10
71424;BME280;59240;51.370;-0.486;2023-01-31T13:37:16;102289.13;;;13.85;64.21
71424;BME280;59240;51.370;-0.486;2023-01-31T13:39:57;102265.78;;;13.63;59.62
71424;BME280;59240;51.370;-0.486;2023-01-31T13:42:25;102275.13;;;13.86;64.15
71424;BME280;59240;51.370;-0.486;2023-01-31T13:45:04;102232.66;;;13.62;60.59
71424;BME280;59240;51.370;-0.486;2023-01-31T13:47:44;102271.56;;;13.94;61.42
71424;BME280;59240;51.370;-0.486;2023-01-31T13:52:56;102268.28;;;13.76;61.99
71424;BME280;59240;51.370;-0.486;2023-01-31T13:55:50;102256.16;;;13.68;59.23
71424;BME280;59240;51.370;-0.486;2023-01-31T13:58:22;102244.81;;;13.68;62.06
71424;BME280;59240;51.370;-0.486;2023-01-31T14:00:56;102230.19;;;13.47;59.46
71424;BME280;59240;51.370;-0.486;2023-01-31T14:03:27;102247.59;;;13.51;60.73
71424;BME280;59240;51.370;-0.486;2023-01-31T14:05:59;102227.69;;;13.36;59.78
71424;BME280;59240;51.370;-0.486;2023-01-31T14:16:44;102192.19;;;13.08;58.78
71424;BME280;59240;51.370;-0.486;2023-01-31T14:21:54;102243.47;;;13.29;59.47
71424;BME280;59240;51.370;-0.486;2023-01-31T14:32:33;102277.31;;;13.49;56.18
71424;BME280;59240;51.370;-0.486;2023-01-31T14:40:27;102301.59;;;13.63;52.38
71424;BME280;59240;51.370;-0.486;2023-01-31T14:57:26;102319.44;;;13.17;50.37
71424;BME280;59240;51.370;-0.486;2023-01-31T15:00:27;102321.19;;;13.21;50.11
71424;BME280;59240;51.370;-0.486;2023-01-31T15:03:13;102345.50;;;13.35;51.67
71424;BME280;59240;51.370;-0.486;2023-01-31T15:05:45;102266.47;;;12.88;51.65
71424;BME280;59240;51.370;-0.486;2023-01-31T15:10:57;102356.91;;;13.26;47.26
71424;BME280;59240;51.370;-0.486;2023-01-31T15:13:46;102347.28;;;13.30;49.77
71424;BME280;59240;51.370;-0.486;2023-01-31T15:21:31;102334.97;;;13.41;50.49
71424;BME280;59240;51.370;-0.486;2023-01-31T15:24:01;102333.25;;;13.40;52.83
71424;BME280;59240;51.370;-0.486;2023-01-31T15:26:30;102341.06;;;13.43;52.33
71424;BME280;59240;51.370;-0.486;2023-01-31T15:28:59;102321.09;;;13.33;51.79
71424;BME280;59240;51.370;-0.486;2023-01-31T15:31:31;102343.66;;;13.43;51.55
71424;BME280;59240;51.370;-0.486;2023-01-31T15:34:15;102313.34;;;13.18;50.03
71424;BME280;59240;51.370;-0.486;2023-01-31T15:37:13;102305.66;;;12.93;46.34
71424;BME280;59240;51.370;-0.486;2023-01-31T15:39:55;102270.19;;;12.57;48.44
71424;BME280;59240;51.370;-0.486;2023-01-31T15:42:26;102308.47;;;12.70;50.55